createdAt,value
2022-11-29T00:07:45.503Z,6.00
2022-11-29T00:27:45.490Z,6.06
2022-11-29T00:47:45.461Z,6.12
2022-11-29T01:07:45.462Z,6.02
2022-11-29T01:27:45.440Z,5.98
2022-11-29T02:07:45.408Z,5.96
2022-11-29T02:27:45.409Z,5.98
2022-11-29T02:47:45.419Z,5.94
2022-11-29T03:07:45.382Z,5.93
2022-11-29T03:27:45.345Z,5.93
2022-11-29T03:47:45.350Z,5.85
2022-11-29T04:07:45.325Z,5.78
2022-11-29T04:27:45.315Z,5.83
2022-11-29T04:47:45.300Z,5.81
2022-11-29T05:07:45.302Z,5.82
2022-11-29T05:27:45.259Z,5.88
2022-11-29T05:47:45.274Z,5.87
2022-11-29T06:07:45.253Z,5.86
2022-11-29T06:27:45.239Z,5.96
2022-11-29T06:47:45.241Z,5.96
2022-11-29T07:07:45.205Z,5.96
2022-11-29T07:27:45.201Z,5.96
2022-11-29T07:47:45.190Z,5.96
2022-11-29T08:07:45.172Z,5.92
2022-11-29T08:27:45.163Z,6.00
2022-11-29T08:47:45.151Z,5.98
2022-11-29T09:07:45.160Z,6.02
2022-11-29T09:27:45.131Z,6.04
2022-11-29T09:47:45.106Z,6.13
2022-11-29T10:07:45.203Z,6.27
2022-11-29T10:27:45.079Z,6.36
2022-11-29T10:47:45.066Z,6.41
2022-11-29T11:07:45.063Z,6.50
2022-11-29T11:27:45.054Z,6.59
2022-11-29T11:47:45.048Z,6.65
2022-11-29T12:07:45.011Z,6.71
2022-11-29T12:27:45.005Z,6.80
2022-11-29T12:47:44.987Z,6.78
2022-11-29T13:07:44.973Z,6.77
2022-11-29T13:27:45.045Z,6.73
2022-11-29T13:47:44.932Z,6.70
2022-11-29T14:07:44.932Z,6.70
2022-11-29T14:27:44.919Z,6.58
2022-11-29T14:47:44.903Z,6.46
2022-11-29T15:07:44.874Z,6.37
2022-11-29T15:27:44.868Z,6.37
2022-11-29T15:47:44.926Z,6.37
2022-11-29T16:07:44.866Z,6.26
2022-11-29T16:27:44.904Z,6.22
2022-11-29T16:47:44.810Z,6.12
2022-11-29T17:07:44.806Z,6.18
2022-11-29T17:27:44.798Z,6.12
2022-11-29T17:47:44.825Z,6.08
2022-11-29T18:07:44.761Z,5.99
2022-11-29T18:27:44.760Z,6.03
2022-11-29T18:47:44.723Z,5.94
2022-11-29T19:07:44.723Z,5.90
2022-11-29T19:27:44.702Z,5.78
2022-11-29T19:47:44.728Z,5.68
2022-11-29T20:07:44.728Z,5.64
2022-11-29T20:27:44.690Z,5.44
2022-11-29T20:47:44.684Z,5.38
2022-11-29T21:07:44.638Z,5.29
2022-11-29T21:27:44.621Z,5.11
2022-11-29T21:47:44.691Z,4.98
2022-11-29T22:07:44.615Z,4.96
2022-11-29T22:27:44.729Z,4.85
2022-11-29T22:47:44.574Z,4.89
2022-11-29T23:07:44.585Z,4.83
2022-11-29T23:27:44.576Z,4.80
2022-11-29T23:47:44.605Z,4.81
